createdAt,value
2022-09-24T00:01:26.365Z,87.56
2022-09-24T00:04:00.154Z,86.90
2022-09-24T00:06:28.019Z,87.69
2022-09-24T00:08:55.820Z,87.39
2022-09-24T00:11:25.120Z,87.01
2022-09-24T00:13:53.057Z,87.14
2022-09-24T00:16:21.810Z,86.22
2022-09-24T00:18:48.386Z,86.02
2022-09-24T00:21:21.119Z,86.79
2022-09-24T00:23:53.209Z,87.50
2022-09-24T00:26:39.300Z,86.85
2022-09-24T00:29:07.207Z,87.51
2022-09-24T00:31:33.730Z,86.89
2022-09-24T00:34:01.599Z,87.53
2022-09-24T00:36:28.151Z,87.52
2022-09-24T00:38:57.183Z,88.04
2022-09-24T00:41:27.232Z,87.32
2022-09-24T00:43:54.060Z,86.12
2022-09-24T00:46:32.608Z,86.88
2022-09-24T00:49:04.347Z,88.21
2022-09-24T00:51:32.978Z,87.89
2022-09-24T00:54:04.099Z,86.67
2022-09-24T00:56:33.672Z,86.78
2022-09-24T00:59:02.538Z,88.04
2022-09-24T01:01:29.930Z,88.50
2022-09-24T01:03:58.091Z,88.00
2022-09-24T01:06:25.733Z,88.99
2022-09-24T01:08:53.612Z,87.57
2022-09-24T01:11:47.081Z,87.02
2022-09-24T01:14:23.103Z,87.35
2022-09-24T01:17:11.989Z,88.23
2022-09-24T01:20:14.379Z,88.48
2022-09-24T01:22:40.728Z,87.89
2022-09-24T01:25:31.299Z,87.34
2022-09-24T01:28:31.735Z,88.60
2022-09-24T01:31:16.413Z,87.88
2022-09-24T01:33:46.446Z,87.39
2022-09-24T01:36:15.710Z,87.68
2022-09-24T01:38:45.099Z,88.15
2022-09-24T01:41:13.659Z,88.88
2022-09-24T01:43:40.057Z,86.49
2022-09-24T01:46:07.363Z,86.58
2022-09-24T01:48:37.481Z,84.80
2022-09-24T01:51:22.125Z,87.00
2022-09-24T01:53:57.478Z,87.17
2022-09-24T01:56:52.351Z,87.73
2022-09-24T01:59:48.729Z,89.55
2022-09-24T02:02:34.440Z,88.80
2022-09-24T02:05:14.726Z,89.52
2022-09-24T02:07:53.201Z,89.51
2022-09-24T02:10:29.759Z,89.27
2022-09-24T02:12:58.362Z,89.79
2022-09-24T02:15:32.755Z,89.69
2022-09-24T02:18:06.105Z,89.82
2022-09-24T02:20:36.007Z,89.70
2022-09-24T02:23:04.807Z,89.36
2022-09-24T02:25:42.126Z,89.86
2022-09-24T02:28:08.593Z,89.47
2022-09-24T02:30:42.491Z,89.45
2022-09-24T02:33:32.452Z,90.10
2022-09-24T02:35:59.011Z,90.27
2022-09-24T02:38:25.514Z,90.07
2022-09-24T02:40:58.363Z,89.41
2022-09-24T02:43:25.936Z,88.57
2022-09-24T02:45:52.290Z,88.42
2022-09-24T02:48:18.730Z,88.25
2022-09-24T02:50:46.033Z,88.05
2022-09-24T02:53:12.421Z,88.62
2022-09-24T02:55:38.809Z,88.25
2022-09-24T02:58:05.224Z,88.27
2022-09-24T03:00:32.595Z,88.11
2022-09-24T03:02:59.235Z,87.89
2022-09-24T03:05:25.655Z,87.44
2022-09-24T03:07:52.000Z,87.49
2022-09-24T03:10:19.006Z,89.16
2022-09-24T03:12:45.372Z,88.83
2022-09-24T03:15:11.793Z,88.00
2022-09-24T03:17:38.161Z,88.22
2022-09-24T03:20:06.165Z,89.35
2022-09-24T03:22:32.667Z,89.46
2022-09-24T03:24:59.044Z,88.85
2022-09-24T03:27:25.434Z,89.18
2022-09-24T03:30:10.571Z,88.62
2022-09-24T03:32:36.944Z,88.26
2022-09-24T03:35:03.936Z,87.87
2022-09-24T03:37:30.864Z,88.62
2022-09-24T03:39:58.308Z,88.97
2022-09-24T03:42:24.657Z,89.20
2022-09-24T03:44:54.107Z,89.57
2022-09-24T03:47:20.464Z,88.44
2022-09-24T03:49:46.851Z,87.97
2022-09-24T03:52:13.207Z,89.16
2022-09-24T03:54:39.566Z,88.65
2022-09-24T03:57:05.959Z,87.61
2022-09-24T03:59:32.336Z,87.95
2022-09-24T04:01:58.741Z,88.63
2022-09-24T04:04:25.122Z,88.86
2022-09-24T04:06:52.671Z,88.41
2022-09-24T04:09:19.039Z,88.19
2022-09-24T04:11:45.393Z,88.26
2022-09-24T04:14:11.851Z,88.72
2022-09-24T04:16:38.310Z,88.28
2022-09-24T04:19:04.796Z,88.29
2022-09-24T04:21:31.804Z,88.89
2022-09-24T04:23:58.174Z,88.90
2022-09-24T04:26:24.532Z,89.29
2022-09-24T04:28:50.903Z,88.78
2022-09-24T04:31:17.348Z,88.30
2022-09-24T04:33:43.833Z,88.33
2022-09-24T04:36:10.249Z,88.66
2022-09-24T04:38:36.659Z,88.05
2022-09-24T04:41:07.939Z,88.36
2022-09-24T04:43:36.776Z,88.94
2022-09-24T04:46:04.069Z,87.82
2022-09-24T04:48:31.020Z,88.29
2022-09-24T04:50:57.658Z,87.99
2022-09-24T04:53:24.835Z,88.29
2022-09-24T04:55:51.215Z,88.25
2022-09-24T04:58:19.897Z,87.82
2022-09-24T05:00:47.616Z,87.39
2022-09-24T05:03:14.174Z,87.59
2022-09-24T05:05:40.587Z,88.20
2022-09-24T05:08:06.988Z,87.42
2022-09-24T05:10:33.464Z,87.46
2022-09-24T05:13:00.878Z,87.67
2022-09-24T05:15:27.375Z,87.57
2022-09-24T05:17:53.762Z,88.54
2022-09-24T05:20:20.667Z,90.15
2022-09-24T05:22:49.500Z,90.82
2022-09-24T05:25:17.931Z,90.24
2022-09-24T05:27:49.514Z,89.53
2022-09-24T05:30:16.719Z,88.65
2022-09-24T05:32:43.385Z,88.74
2022-09-24T05:35:10.126Z,88.21
2022-09-24T05:37:38.330Z,86.66
2022-09-24T05:40:32.706Z,86.73
2022-09-24T05:43:01.568Z,86.97
2022-09-24T05:45:29.725Z,86.95
2022-09-24T05:47:56.281Z,87.09
2022-09-24T05:50:22.844Z,85.33
2022-09-24T05:52:49.290Z,85.83
2022-09-24T05:55:15.922Z,85.84
2022-09-24T05:57:42.315Z,86.15
2022-09-24T06:00:09.245Z,86.18
2022-09-24T06:02:35.769Z,86.63
2022-09-24T06:05:02.228Z,86.73
2022-09-24T06:07:28.599Z,86.17
2022-09-24T06:09:55.474Z,85.98
2022-09-24T06:12:23.510Z,85.98
2022-09-24T06:14:49.975Z,86.58
2022-09-24T06:17:16.802Z,87.21
2022-09-24T06:19:43.253Z,86.84
2022-09-24T06:22:09.611Z,86.93
2022-09-24T06:24:35.979Z,87.95
2022-09-24T06:27:02.341Z,87.46
2022-09-24T06:29:28.719Z,87.16
2022-09-24T06:31:55.117Z,88.28
2022-09-24T06:34:21.493Z,87.55
2022-09-24T06:36:47.857Z,88.32
2022-09-24T06:39:18.832Z,87.62
2022-09-24T06:41:46.536Z,86.60
2022-09-24T06:44:12.912Z,86.60
2022-09-24T06:46:39.378Z,86.93
2022-09-24T06:49:05.770Z,87.45
2022-09-24T06:51:32.124Z,89.42
2022-09-24T06:53:58.482Z,89.73
2022-09-24T06:56:24.836Z,90.09
2022-09-24T06:58:51.250Z,90.03
2022-09-24T07:01:17.660Z,90.78
2022-09-24T07:03:44.158Z,90.84
2022-09-24T07:06:10.562Z,91.47
2022-09-24T07:08:37.028Z,92.47
2022-09-24T07:11:04.089Z,92.57
2022-09-24T07:13:30.594Z,93.41
2022-09-24T07:15:57.073Z,93.83
2022-09-24T07:18:23.503Z,93.07
2022-09-24T07:20:55.327Z,93.91
2022-09-24T07:23:22.786Z,91.41
2022-09-24T07:25:50.414Z,90.95
2022-09-24T07:28:17.274Z,92.00
2022-09-24T07:30:43.660Z,90.93
2022-09-24T07:33:10.194Z,91.01
2022-09-24T07:35:40.095Z,91.48
2022-09-24T07:38:11.892Z,91.48
2022-09-24T07:40:38.492Z,92.35
2022-09-24T07:43:31.999Z,91.79
2022-09-24T07:45:59.465Z,92.82
2022-09-24T07:48:28.953Z,92.35
2022-09-24T07:50:55.889Z,91.61
2022-09-24T07:53:22.267Z,91.92
2022-09-24T07:55:59.155Z,92.09
2022-09-24T07:58:25.617Z,92.45
2022-09-24T08:00:53.172Z,92.84
2022-09-24T08:03:20.487Z,90.87
2022-09-24T08:05:49.229Z,90.42
2022-09-24T08:08:24.572Z,90.64
2022-09-24T08:10:51.008Z,92.41
2022-09-24T08:13:26.868Z,93.65
2022-09-24T08:16:06.023Z,93.59
2022-09-24T08:18:32.931Z,92.01
2022-09-24T08:21:06.344Z,89.05
2022-09-24T08:23:34.390Z,90.70
2022-09-24T08:26:02.596Z,91.15
2022-09-24T08:28:31.340Z,90.96
2022-09-24T08:31:00.409Z,91.38
2022-09-24T08:33:29.023Z,91.57
2022-09-24T08:35:55.486Z,91.76
2022-09-24T08:38:21.959Z,92.33
2022-09-24T08:41:10.254Z,92.99
2022-09-24T08:44:01.993Z,93.61
2022-09-24T08:47:16.847Z,93.84
2022-09-24T08:49:58.337Z,94.43
2022-09-24T08:52:42.661Z,94.61
2022-09-24T08:55:34.095Z,93.57
2022-09-24T08:58:17.014Z,92.73
2022-09-24T09:00:50.081Z,92.74
2022-09-24T09:03:24.888Z,92.39
2022-09-24T09:06:01.575Z,91.20
2022-09-24T09:09:06.426Z,91.82
2022-09-24T09:11:36.712Z,92.75
2022-09-24T09:14:51.249Z,92.09
2022-09-24T09:17:33.891Z,93.20
2022-09-24T09:20:05.820Z,93.76
2022-09-24T09:22:39.307Z,94.90
2022-09-24T09:25:18.219Z,94.75
2022-09-24T09:27:44.614Z,94.74
2022-09-24T09:30:16.840Z,93.29
2022-09-24T09:33:08.676Z,93.84
2022-09-24T09:35:45.748Z,93.84
2022-09-24T09:38:40.375Z,94.07
2022-09-24T09:41:29.151Z,92.31
2022-09-24T09:44:09.608Z,92.42
2022-09-24T09:46:43.736Z,92.65
2022-09-24T09:49:10.585Z,92.96
2022-09-24T09:51:54.917Z,91.53
2022-09-24T09:54:43.361Z,91.19
2022-09-24T09:57:18.891Z,90.54
2022-09-24T09:59:48.192Z,91.15
2022-09-24T10:02:24.800Z,89.86
2022-09-24T10:05:05.504Z,89.44
2022-09-24T10:07:32.221Z,89.32
2022-09-24T10:10:20.227Z,89.61
2022-09-24T10:13:08.837Z,90.45
2022-09-24T10:15:55.243Z,90.34
2022-09-24T10:18:30.393Z,88.89
2022-09-24T10:20:58.679Z,86.97
2022-09-24T10:23:44.679Z,85.97
2022-09-24T10:26:11.284Z,85.90
2022-09-24T10:29:19.608Z,84.00
2022-09-24T10:32:03.010Z,83.64
2022-09-24T10:34:29.836Z,83.94
2022-09-24T10:37:16.711Z,82.57
2022-09-24T10:39:43.271Z,80.78
2022-09-24T10:42:26.801Z,80.12
2022-09-24T10:44:54.265Z,78.70
2022-09-24T10:47:40.618Z,79.94
2022-09-24T10:50:32.682Z,78.42
2022-09-24T10:53:08.436Z,78.41
2022-09-24T10:55:55.455Z,75.64
2022-09-24T10:58:59.560Z,76.41
2022-09-24T11:01:49.305Z,73.51
2022-09-24T11:05:12.153Z,74.77
2022-09-24T11:07:57.303Z,77.10
2022-09-24T11:10:29.902Z,78.59
2022-09-24T11:13:15.458Z,77.86
2022-09-24T11:16:11.741Z,78.88
2022-09-24T11:19:23.286Z,79.04
2022-09-24T11:22:11.555Z,78.45
2022-09-24T11:24:56.405Z,76.17
2022-09-24T11:27:47.119Z,73.13
2022-09-24T11:30:16.220Z,75.42
2022-09-24T11:33:13.620Z,73.09
2022-09-24T11:35:56.513Z,74.98
2022-09-24T11:38:35.498Z,74.99
2022-09-24T11:41:14.604Z,73.96
2022-09-24T11:43:51.532Z,75.80
2022-09-24T11:46:39.991Z,71.82
2022-09-24T11:49:50.256Z,72.12
2022-09-24T11:52:40.826Z,72.27
2022-09-24T11:55:34.403Z,74.16
2022-09-24T11:58:19.298Z,72.51
2022-09-24T12:01:09.028Z,73.77
2022-09-24T12:03:58.238Z,73.72
2022-09-24T12:06:52.388Z,73.35
2022-09-24T12:09:41.186Z,76.56
2022-09-24T12:12:22.872Z,75.05
2022-09-24T12:15:02.694Z,72.81
2022-09-24T12:17:39.277Z,70.06
2022-09-24T12:20:30.525Z,74.27
2022-09-24T12:23:04.234Z,73.52
2022-09-24T12:26:00.876Z,74.71
2022-09-24T12:28:52.995Z,71.10
2022-09-24T12:32:22.757Z,72.97
2022-09-24T12:34:59.007Z,72.18
2022-09-24T12:37:31.856Z,71.16
2022-09-24T12:40:16.841Z,71.62
2022-09-24T12:42:49.634Z,72.56
2022-09-24T12:45:21.017Z,72.49
2022-09-24T12:47:54.095Z,72.75
2022-09-24T12:50:38.910Z,72.55
2022-09-24T12:53:24.688Z,70.39
2022-09-24T12:55:52.531Z,73.58
2022-09-24T12:58:41.126Z,71.58
2022-09-24T13:01:26.751Z,71.43
2022-09-24T13:04:15.041Z,72.51
2022-09-24T13:06:46.482Z,70.47
2022-09-24T13:09:34.227Z,74.85
2022-09-24T13:12:03.326Z,73.59
2022-09-24T13:14:32.420Z,72.30
2022-09-24T13:17:05.103Z,74.11
2022-09-24T13:19:42.474Z,72.66
2022-09-24T13:22:25.246Z,74.59
2022-09-24T13:25:04.470Z,74.62
2022-09-24T13:27:30.775Z,71.44
2022-09-24T13:30:08.237Z,73.15
2022-09-24T13:32:50.911Z,77.19
2022-09-24T13:35:24.383Z,74.17
2022-09-24T13:37:57.241Z,75.43
2022-09-24T13:40:29.871Z,75.59
2022-09-24T13:43:04.066Z,75.36
2022-09-24T13:45:36.948Z,77.17
2022-09-24T13:48:35.726Z,76.04
2022-09-24T13:51:11.159Z,75.23
2022-09-24T13:53:45.127Z,76.03
2022-09-24T13:56:20.026Z,74.37
2022-09-24T13:58:51.108Z,75.24
2022-09-24T14:01:43.685Z,75.84
2022-09-24T14:04:20.580Z,76.81
2022-09-24T14:06:52.719Z,76.06
2022-09-24T14:09:27.104Z,78.52
2022-09-24T14:11:56.421Z,76.69
2022-09-24T14:14:27.884Z,77.41
2022-09-24T14:17:05.327Z,78.06
2022-09-24T14:19:34.426Z,78.65
2022-09-24T14:22:03.090Z,78.32
2022-09-24T14:25:00.160Z,77.93
2022-09-24T14:27:28.559Z,78.90
2022-09-24T14:29:58.107Z,80.64
2022-09-24T14:32:38.138Z,80.82
2022-09-24T14:35:06.342Z,80.62
2022-09-24T14:37:39.524Z,80.56
2022-09-24T14:40:15.386Z,79.85
2022-09-24T14:43:03.257Z,80.17
2022-09-24T14:45:37.780Z,79.72
2022-09-24T14:48:34.398Z,80.07
2022-09-24T14:51:00.915Z,81.18
2022-09-24T14:53:35.957Z,80.88
2022-09-24T14:56:26.244Z,81.17
2022-09-24T14:58:52.797Z,82.14
2022-09-24T15:01:23.461Z,82.30
2022-09-24T15:03:53.155Z,82.49
2022-09-24T15:06:26.080Z,83.51
2022-09-24T15:09:02.019Z,81.81
2022-09-24T15:11:34.526Z,82.90
2022-09-24T15:14:36.112Z,82.56
2022-09-24T15:17:22.930Z,82.81
2022-09-24T15:19:54.672Z,84.26
2022-09-24T15:22:26.606Z,83.50
2022-09-24T15:25:00.278Z,83.35
2022-09-24T15:27:38.334Z,84.32
2022-09-24T15:30:10.506Z,83.86
2022-09-24T15:32:37.155Z,83.60
2022-09-24T15:35:09.419Z,83.19
2022-09-24T15:37:39.463Z,84.54
2022-09-24T15:40:09.473Z,84.77
2022-09-24T15:42:35.893Z,85.96
2022-09-24T15:45:02.255Z,86.93
2022-09-24T15:47:28.670Z,86.86
2022-09-24T15:49:55.050Z,87.69
2022-09-24T15:52:31.768Z,87.15
2022-09-24T15:55:00.771Z,87.68
2022-09-24T15:57:27.432Z,87.73
2022-09-24T15:59:54.272Z,87.80
2022-09-24T16:02:33.319Z,87.37
2022-09-24T16:05:03.549Z,88.57
2022-09-24T16:07:31.700Z,88.50
2022-09-24T16:09:59.266Z,89.05
2022-09-24T16:12:28.162Z,90.34
2022-09-24T16:14:59.029Z,90.23
2022-09-24T16:17:30.796Z,88.77
2022-09-24T16:19:58.325Z,88.44
2022-09-24T16:22:25.028Z,89.79
2022-09-24T16:24:54.143Z,90.29
2022-09-24T16:27:27.506Z,89.27
2022-09-24T16:29:53.969Z,89.66
2022-09-24T16:32:21.411Z,89.51
2022-09-24T16:34:49.917Z,89.26
2022-09-24T16:37:18.346Z,90.06
2022-09-24T16:39:45.983Z,89.93
2022-09-24T16:42:12.393Z,89.69
2022-09-24T16:44:38.824Z,90.25
2022-09-24T16:47:05.233Z,90.31
2022-09-24T16:49:42.767Z,89.06
2022-09-24T16:52:09.149Z,89.02
2022-09-24T16:54:36.742Z,89.47
2022-09-24T16:57:10.232Z,89.59
2022-09-24T16:59:47.897Z,90.10
2022-09-24T17:02:14.399Z,89.73
2022-09-24T17:04:41.663Z,89.04
2022-09-24T17:07:13.265Z,88.54
2022-09-24T17:10:00.621Z,88.36
2022-09-24T17:12:29.235Z,89.57
2022-09-24T17:14:57.565Z,89.70
2022-09-24T17:17:25.950Z,90.87
2022-09-24T17:19:52.339Z,90.59
2022-09-24T17:22:18.797Z,92.47
2022-09-24T17:24:45.201Z,92.66
2022-09-24T17:27:11.682Z,92.98
2022-09-24T17:29:38.098Z,93.17
2022-09-24T17:32:04.530Z,93.33
2022-09-24T17:34:31.901Z,94.05
2022-09-24T17:37:00.386Z,94.47
2022-09-24T17:39:28.102Z,94.51
2022-09-24T17:41:54.520Z,95.03
2022-09-24T17:44:21.976Z,95.50
2022-09-24T17:46:52.466Z,96.06
2022-09-24T17:49:26.035Z,96.34
2022-09-24T20:03:07.024Z,93.92
2022-09-24T20:05:34.641Z,94.83
2022-09-24T20:08:03.415Z,93.73
2022-09-24T20:10:31.269Z,93.53
2022-09-24T20:12:58.246Z,93.78
2022-09-24T20:15:24.793Z,93.95
2022-09-24T20:17:52.632Z,94.21
2022-09-24T20:20:19.120Z,94.00
2022-09-24T20:22:45.490Z,93.95
2022-09-24T20:25:15.294Z,94.26
2022-09-24T20:27:55.349Z,93.77
2022-09-24T20:30:23.469Z,93.28
2022-09-24T20:32:50.698Z,93.31
2022-09-24T20:35:17.461Z,93.04
2022-09-24T20:37:44.502Z,93.21
2022-09-24T20:40:11.102Z,93.45
2022-09-24T20:42:38.496Z,93.95
2022-09-24T20:45:06.785Z,93.49
2022-09-24T20:47:33.313Z,93.62
2022-09-24T20:49:59.700Z,94.02
2022-09-24T20:52:26.100Z,93.49
2022-09-24T20:54:54.557Z,94.07
2022-09-24T20:57:20.967Z,93.83
2022-09-24T20:59:48.063Z,93.86
2022-09-24T21:02:15.468Z,94.17
2022-09-24T21:04:42.005Z,95.03
2022-09-24T21:07:08.402Z,94.15
2022-09-24T21:09:34.819Z,93.81
2022-09-24T21:12:03.551Z,95.26
2022-09-24T21:14:29.958Z,95.38
2022-09-24T21:16:56.483Z,95.43
2022-09-24T21:19:22.895Z,95.08
2022-09-24T21:21:49.277Z,94.43
2022-09-24T21:24:16.204Z,95.30
2022-09-24T21:26:45.063Z,95.44
2022-09-24T21:29:16.529Z,95.22
2022-09-24T21:31:45.934Z,95.57
2022-09-24T21:34:14.256Z,95.30
2022-09-24T21:36:44.607Z,95.95
2022-09-24T21:39:18.991Z,95.80
2022-09-24T21:41:49.898Z,95.78
2022-09-24T21:44:17.690Z,95.61
2022-09-24T21:46:44.665Z,96.53
2022-09-24T21:49:11.853Z,96.76
2022-09-24T21:51:43.371Z,96.78
2022-09-24T21:54:14.089Z,97.65
2022-09-24T21:56:40.510Z,96.80
2022-09-24T21:59:26.881Z,97.50
2022-09-24T22:01:54.466Z,96.40
2022-09-24T22:04:21.737Z,96.46
2022-09-24T22:06:48.684Z,94.55
2022-09-24T22:09:15.819Z,94.61
2022-09-24T22:11:42.955Z,96.21
2022-09-24T22:14:10.335Z,96.19
2022-09-24T22:16:36.844Z,96.84
2022-09-24T22:19:06.066Z,97.47
2022-09-24T22:21:34.257Z,96.75
2022-09-24T22:24:01.171Z,96.50
2022-09-24T22:26:29.503Z,98.10
2022-09-24T22:28:56.615Z,97.87
2022-09-24T22:31:23.238Z,97.66
2022-09-24T22:34:08.418Z,97.50
2022-09-24T22:36:36.092Z,97.87
2022-09-24T22:39:05.061Z,98.80
2022-09-24T22:41:32.642Z,98.69
2022-09-24T22:43:59.355Z,99.04
2022-09-24T22:46:26.963Z,98.72
2022-09-24T22:48:54.758Z,97.65
2022-09-24T22:51:21.260Z,98.90
2022-09-24T22:53:47.663Z,99.70
2022-09-24T22:56:16.967Z,99.72
2022-09-24T22:58:45.046Z,100.00
2022-09-24T23:01:13.567Z,100.00
2022-09-24T23:03:41.033Z,100.00
2022-09-24T23:06:08.283Z,100.00
2022-09-24T23:08:36.862Z,100.00
2022-09-24T23:11:20.117Z,99.48
2022-09-24T23:13:52.576Z,100.00
2022-09-24T23:16:25.529Z,100.00
2022-09-24T23:18:55.488Z,100.00
2022-09-24T23:21:24.007Z,100.00
2022-09-24T23:23:55.026Z,100.00
2022-09-24T23:26:22.891Z,100.00
2022-09-24T23:28:52.705Z,100.00
2022-09-24T23:31:22.145Z,100.00
2022-09-24T23:33:49.792Z,100.00
2022-09-24T23:36:16.506Z,100.00
2022-09-24T23:38:43.854Z,100.00
2022-09-24T23:41:12.900Z,100.00
2022-09-24T23:43:40.993Z,100.00
2022-09-24T23:46:08.274Z,99.88
2022-09-24T23:48:35.080Z,100.00
2022-09-24T23:51:01.481Z,100.00
2022-09-24T23:53:27.929Z,100.00
2022-09-24T23:55:55.336Z,100.00
2022-09-24T23:58:23.536Z,100.00
